Terminal Aerodrome Forecast
Issued by NWS

Home | Current Version | Previous Version | Text Only | Print | Product List | Glossary On
Versions: 1 2 3 4 5 6 7 8 9 10 11 12 13 14 15 16 17 18 19 20 21 22 23 24 25 26 27 28 29 30 31 32 33 34 35 36
000
FTUS41 KALY 281137 AAA
TAFPSF
TAF AMD
KPSF 281137Z 2812/2912 27007KT P6SM SCT015 BKN025
     FM281300 27009KT P6SM SCT025
     FM281500 29011G19KT P6SM FEW060 SCT200
     FM290000 28006KT P6SM SCT200
     FM290300 VRB03KT P6SM SCT250
     FM290600 VRB03KT P6SM BKN060=

USA.gov is the U.S. government's official web portal to all federal, state and local government web resources and services.